sensor_id;sensor_type;location;lat;lon;timestamp;temperature;humidity
56103;DHT22;41970;48.774;9.280;2023-04-10T00:00:08;6.70;98.30
56103;DHT22;41970;48.774;9.280;2023-04-10T00:02:35;6.70;98.40
56103;DHT22;41970;48.774;9.280;2023-04-10T00:05:02;6.70;98.40
56103;DHT22;41970;48.774;9.280;2023-04-10T00:07:28;6.70;98.40
56103;DHT22;41970;48.774;9.280;2023-04-10T00:09:54;6.60;98.60
56103;DHT22;41970;48.774;9.280;2023-04-10T00:12:20;6.60;98.60
56103;DHT22;41970;48.774;9.280;2023-04-10T00:14:46;6.70;98.50
56103;DHT22;41970;48.774;9.280;2023-04-10T00:17:12;6.60;98.60
56103;DHT22;41970;48.774;9.280;2023-04-10T00:19:37;6.60;98.60
56103;DHT22;41970;48.774;9.280;2023-04-10T00:22:04;6.60;98.60
56103;DHT22;41970;48.774;9.280;2023-04-10T00:24:30;6.50;98.60
56103;DHT22;41970;48.774;9.280;2023-04-10T00:26:56;6.60;98.70
56103;DHT22;41970;48.774;9.280;2023-04-10T00:29:23;6.60;98.40
56103;DHT22;41970;48.774;9.280;2023-04-10T00:31:48;6.70;98.40
56103;DHT22;41970;48.774;9.280;2023-04-10T00:34:14;6.60;98.30
56103;DHT22;41970;48.774;9.280;2023-04-10T00:36:40;6.60;98.40
56103;DHT22;41970;48.774;9.280;2023-04-10T00:39:08;6.50;98.40
56103;DHT22;41970;48.774;9.280;2023-04-10T00:41:34;6.50;98.50
56103;DHT22;41970;48.774;9.280;2023-04-10T00:43:59;6.40;98.60
56103;DHT22;41970;48.774;9.280;2023-04-10T00:46:26;6.30;98.60
56103;DHT22;41970;48.774;9.280;2023-04-10T00:48:54;6.20;99.00
56103;DHT22;41970;48.774;9.280;2023-04-10T00:51:21;6.20;98.80
56103;DHT22;41970;48.774;9.280;2023-04-10T00:53:48;6.20;98.90
56103;DHT22;41970;48.774;9.280;2023-04-10T00:56:16;6.20;99.10
56103;DHT22;41970;48.774;9.280;2023-04-10T00:58:42;6.20;99.00
56103;DHT22;41970;48.774;9.280;2023-04-10T01:01:08;6.20;98.90
56103;DHT22;41970;48.774;9.280;2023-04-10T01:03:35;6.10;99.00
56103;DHT22;41970;48.774;9.280;2023-04-10T01:06:11;6.00;99.10
56103;DHT22;41970;48.774;9.280;2023-04-10T01:11:17;6.00;99.30
56103;DHT22;41970;48.774;9.280;2023-04-10T01:14:04;6.10;99.10
56103;DHT22;41970;48.774;9.280;2023-04-10T01:16:52;6.00;99.20
56103;DHT22;41970;48.774;9.280;2023-04-10T01:22:34;5.90;99.30
56103;DHT22;41970;48.774;9.280;2023-04-10T01:25:09;5.80;99.40
56103;DHT22;41970;48.774;9.280;2023-04-10T01:30:42;5.80;99.60
56103;DHT22;41970;48.774;9.280;2023-04-10T01:33:11;5.70;99.60
56103;DHT22;41970;48.774;9.280;2023-04-10T01:35:38;5.50;99.70
56103;DHT22;41970;48.774;9.280;2023-04-10T01:38:06;5.50;99.90
56103;DHT22;41970;48.774;9.280;2023-04-10T01:40:34;5.50;99.90
56103;DHT22;41970;48.774;9.280;2023-04-10T01:43:05;5.60;99.80
56103;DHT22;41970;48.774;9.280;2023-04-10T01:45:34;5.60;99.80
56103;DHT22;41970;48.774;9.280;2023-04-10T01:48:01;5.60;99.60
56103;DHT22;41970;48.774;9.280;2023-04-10T01:50:28;5.50;99.70
56103;DHT22;41970;48.774;9.280;2023-04-10T01:52:56;5.50;99.90
56103;DHT22;41970;48.774;9.280;2023-04-10T01:55:22;5.50;99.90
56103;DHT22;41970;48.774;9.280;2023-04-10T01:57:49;5.50;99.90
56103;DHT22;41970;48.774;9.280;2023-04-10T02:00:15;5.50;99.70
56103;DHT22;41970;48.774;9.280;2023-04-10T02:02:42;5.50;99.90
56103;DHT22;41970;48.774;9.280;2023-04-10T02:05:09;5.40;99.90
56103;DHT22;41970;48.774;9.280;2023-04-10T02:07:56;5.30;99.90
56103;DHT22;41970;48.774;9.280;2023-04-10T02:10:36;5.30;99.90
56103;DHT22;41970;48.774;9.280;2023-04-10T02:13:06;5.20;99.90
56103;DHT22;41970;48.774;9.280;2023-04-10T02:15:33;5.20;99.90
56103;DHT22;41970;48.774;9.280;2023-04-10T02:18:01;5.20;99.90
56103;DHT22;41970;48.774;9.280;2023-04-10T02:20:29;5.20;99.90
56103;DHT22;41970;48.774;9.280;2023-04-10T02:22:57;5.20;99.90
56103;DHT22;41970;48.774;9.280;2023-04-10T02:25:32;5.20;99.90
56103;DHT22;41970;48.774;9.280;2023-04-10T02:28:02;5.20;99.90
56103;DHT22;41970;48.774;9.280;2023-04-10T02:30:27;5.20;99.90
56103;DHT22;41970;48.774;9.280;2023-04-10T02:32:53;5.30;99.90
56103;DHT22;41970;48.774;9.280;2023-04-10T02:35:21;5.20;99.90
56103;DHT22;41970;48.774;9.280;2023-04-10T02:37:47;5.10;99.90
56103;DHT22;41970;48.774;9.280;2023-04-10T02:40:13;5.10;99.90
56103;DHT22;41970;48.774;9.280;2023-04-10T02:42:39;5.10;99.90
56103;DHT22;41970;48.774;9.280;2023-04-10T02:45:05;5.10;99.90
56103;DHT22;41970;48.774;9.280;2023-04-10T02:47:31;5.00;99.90
56103;DHT22;41970;48.774;9.280;2023-04-10T02:49:57;5.00;99.90
56103;DHT22;41970;48.774;9.280;2023-04-10T02:52:22;4.90;99.90
56103;DHT22;41970;48.774;9.280;2023-04-10T02:54:48;4.80;99.90
56103;DHT22;41970;48.774;9.280;2023-04-10T02:57:15;4.90;99.90
56103;DHT22;41970;48.774;9.280;2023-04-10T02:59:41;4.90;99.90
56103;DHT22;41970;48.774;9.280;2023-04-10T03:02:07;5.00;99.90
56103;DHT22;41970;48.774;9.280;2023-04-10T03:04:32;5.00;99.90
56103;DHT22;41970;48.774;9.280;2023-04-10T03:06:58;5.00;99.90
56103;DHT22;41970;48.774;9.280;2023-04-10T03:09:24;4.90;99.90
56103;DHT22;41970;48.774;9.280;2023-04-10T03:11:50;4.80;99.90
56103;DHT22;41970;48.774;9.280;2023-04-10T03:14:18;4.80;99.90
56103;DHT22;41970;48.774;9.280;2023-04-10T03:16:44;4.80;99.90
56103;DHT22;41970;48.774;9.280;2023-04-10T03:19:12;4.80;99.90
56103;DHT22;41970;48.774;9.280;2023-04-10T03:21:38;4.80;99.90
56103;DHT22;41970;48.774;9.280;2023-04-10T03:24:04;4.70;99.90
56103;DHT22;41970;48.774;9.280;2023-04-10T03:26:30;4.60;99.90
56103;DHT22;41970;48.774;9.280;2023-04-10T03:28:56;4.60;99.90
56103;DHT22;41970;48.774;9.280;2023-04-10T03:31:22;4.70;99.90
56103;DHT22;41970;48.774;9.280;2023-04-10T03:33:48;4.80;99.90
56103;DHT22;41970;48.774;9.280;2023-04-10T03:36:14;4.80;99.90
56103;DHT22;41970;48.774;9.280;2023-04-10T03:38:39;4.80;99.90
56103;DHT22;41970;48.774;9.280;2023-04-10T03:41:05;4.70;99.90
56103;DHT22;41970;48.774;9.280;2023-04-10T03:43:32;4.70;99.90
56103;DHT22;41970;48.774;9.280;2023-04-10T03:45:58;4.60;99.90
56103;DHT22;41970;48.774;9.280;2023-04-10T03:48:24;4.60;99.90
56103;DHT22;41970;48.774;9.280;2023-04-10T03:50:53;4.60;99.90
56103;DHT22;41970;48.774;9.280;2023-04-10T03:53:19;4.60;99.90
56103;DHT22;41970;48.774;9.280;2023-04-10T03:55:45;4.60;99.90
56103;DHT22;41970;48.774;9.280;2023-04-10T03:58:11;4.70;99.90
56103;DHT22;41970;48.774;9.280;2023-04-10T04:00:37;4.70;99.90
56103;DHT22;41970;48.774;9.280;2023-04-10T04:03:03;4.70;99.90
56103;DHT22;41970;48.774;9.280;2023-04-10T04:05:32;4.60;99.90
56103;DHT22;41970;48.774;9.280;2023-04-10T04:07:58;4.60;99.90
56103;DHT22;41970;48.774;9.280;2023-04-10T04:10:23;4.60;99.90
56103;DHT22;41970;48.774;9.280;2023-04-10T04:12:49;4.60;99.90
56103;DHT22;41970;48.774;9.280;2023-04-10T04:15:15;4.60;99.90
56103;DHT22;41970;48.774;9.280;2023-04-10T04:17:41;4.50;99.90
56103;DHT22;41970;48.774;9.280;2023-04-10T04:20:08;4.40;99.90
56103;DHT22;41970;48.774;9.280;2023-04-10T04:22:33;4.40;99.90
56103;DHT22;41970;48.774;9.280;2023-04-10T04:24:59;4.40;99.90
56103;DHT22;41970;48.774;9.280;2023-04-10T04:27:25;4.50;99.90
56103;DHT22;41970;48.774;9.280;2023-04-10T04:29:50;4.50;99.90
56103;DHT22;41970;48.774;9.280;2023-04-10T04:32:16;4.40;99.90
56103;DHT22;41970;48.774;9.280;2023-04-10T04:34:42;4.40;99.90
56103;DHT22;41970;48.774;9.280;2023-04-10T04:37:07;4.40;99.90
56103;DHT22;41970;48.774;9.280;2023-04-10T04:39:33;4.40;99.90
56103;DHT22;41970;48.774;9.280;2023-04-10T04:41:59;4.40;99.90
56103;DHT22;41970;48.774;9.280;2023-04-10T04:44:25;4.40;99.90
56103;DHT22;41970;48.774;9.280;2023-04-10T04:46:51;4.50;99.90
56103;DHT22;41970;48.774;9.280;2023-04-10T04:49:17;4.50;99.90
56103;DHT22;41970;48.774;9.280;2023-04-10T04:51:43;4.50;99.90
56103;DHT22;41970;48.774;9.280;2023-04-10T04:54:08;4.50;99.90
56103;DHT22;41970;48.774;9.280;2023-04-10T04:56:34;4.50;99.90
56103;DHT22;41970;48.774;9.280;2023-04-10T04:59:00;4.50;99.90
56103;DHT22;41970;48.774;9.280;2023-04-10T05:01:26;4.50;99.90
56103;DHT22;41970;48.774;9.280;2023-04-10T05:03:52;4.40;99.90
56103;DHT22;41970;48.774;9.280;2023-04-10T05:06:17;4.40;99.90
56103;DHT22;41970;48.774;9.280;2023-04-10T05:08:43;4.30;99.90
56103;DHT22;41970;48.774;9.280;2023-04-10T05:11:09;4.20;99.90
56103;DHT22;41970;48.774;9.280;2023-04-10T05:13:35;4.30;99.90
56103;DHT22;41970;48.774;9.280;2023-04-10T05:16:01;4.40;99.90
56103;DHT22;41970;48.774;9.280;2023-04-10T05:18:27;4.40;99.90
56103;DHT22;41970;48.774;9.280;2023-04-10T05:20:53;4.50;99.90
56103;DHT22;41970;48.774;9.280;2023-04-10T05:23:18;4.50;99.90
56103;DHT22;41970;48.774;9.280;2023-04-10T05:25:44;4.50;99.90
56103;DHT22;41970;48.774;9.280;2023-04-10T05:28:10;4.40;99.90
56103;DHT22;41970;48.774;9.280;2023-04-10T05:30:36;4.40;99.90
56103;DHT22;41970;48.774;9.280;2023-04-10T05:33:02;4.30;99.90
56103;DHT22;41970;48.774;9.280;2023-04-10T05:35:27;4.40;99.90
56103;DHT22;41970;48.774;9.280;2023-04-10T05:37:53;4.50;99.90
56103;DHT22;41970;48.774;9.280;2023-04-10T05:40:19;4.60;99.90
56103;DHT22;41970;48.774;9.280;2023-04-10T05:42:45;4.70;99.90
56103;DHT22;41970;48.774;9.280;2023-04-10T05:45:11;4.70;99.90
56103;DHT22;41970;48.774;9.280;2023-04-10T05:47:39;4.80;99.90
56103;DHT22;41970;48.774;9.280;2023-04-10T05:50:05;4.90;99.90
56103;DHT22;41970;48.774;9.280;2023-04-10T05:52:31;5.00;99.90
56103;DHT22;41970;48.774;9.280;2023-04-10T05:54:57;5.00;99.90
56103;DHT22;41970;48.774;9.280;2023-04-10T05:57:24;5.20;99.90
56103;DHT22;41970;48.774;9.280;2023-04-10T05:59:50;5.20;99.90
56103;DHT22;41970;48.774;9.280;2023-04-10T06:02:15;5.30;99.90
56103;DHT22;41970;48.774;9.280;2023-04-10T06:04:41;5.40;99.90
56103;DHT22;41970;48.774;9.280;2023-04-10T06:07:07;5.50;99.90
56103;DHT22;41970;48.774;9.280;2023-04-10T06:09:33;5.50;99.90
56103;DHT22;41970;48.774;9.280;2023-04-10T06:11:58;5.60;99.90
56103;DHT22;41970;48.774;9.280;2023-04-10T06:14:24;5.70;99.90
56103;DHT22;41970;48.774;9.280;2023-04-10T06:16:50;5.80;99.90
56103;DHT22;41970;48.774;9.280;2023-04-10T06:19:16;5.90;99.90
56103;DHT22;41970;48.774;9.280;2023-04-10T06:21:41;6.00;99.90
56103;DHT22;41970;48.774;9.280;2023-04-10T06:24:07;6.20;99.90
56103;DHT22;41970;48.774;9.280;2023-04-10T06:26:33;6.40;99.90
56103;DHT22;41970;48.774;9.280;2023-04-10T06:28:59;6.40;99.90
56103;DHT22;41970;48.774;9.280;2023-04-10T06:31:25;6.50;99.90
56103;DHT22;41970;48.774;9.280;2023-04-10T06:33:51;6.50;99.90
56103;DHT22;41970;48.774;9.280;2023-04-10T06:36:17;6.50;99.90
56103;DHT22;41970;48.774;9.280;2023-04-10T06:38:43;6.60;99.90
56103;DHT22;41970;48.774;9.280;2023-04-10T06:41:08;6.80;99.90
56103;DHT22;41970;48.774;9.280;2023-04-10T06:43:35;7.00;99.90
56103;DHT22;41970;48.774;9.280;2023-04-10T06:46:04;7.20;99.90
56103;DHT22;41970;48.774;9.280;2023-04-10T06:48:31;7.30;99.90
56103;DHT22;41970;48.774;9.280;2023-04-10T06:50:57;7.50;99.90
56103;DHT22;41970;48.774;9.280;2023-04-10T06:53:25;7.60;99.90
56103;DHT22;41970;48.774;9.280;2023-04-10T06:55:51;7.60;99.90
56103;DHT22;41970;48.774;9.280;2023-04-10T06:58:17;7.60;99.90
56103;DHT22;41970;48.774;9.280;2023-04-10T07:00:43;7.50;99.90
56103;DHT22;41970;48.774;9.280;2023-04-10T07:03:09;7.40;99.90
56103;DHT22;41970;48.774;9.280;2023-04-10T07:05:34;7.40;99.90
56103;DHT22;41970;48.774;9.280;2023-04-10T07:08:00;7.40;99.90
56103;DHT22;41970;48.774;9.280;2023-04-10T07:10:26;7.50;99.90
56103;DHT22;41970;48.774;9.280;2023-04-10T07:12:53;7.70;99.90
56103;DHT22;41970;48.774;9.280;2023-04-10T07:15:18;7.90;99.90
56103;DHT22;41970;48.774;9.280;2023-04-10T07:17:46;8.00;99.90
56103;DHT22;41970;48.774;9.280;2023-04-10T07:20:12;8.20;99.90
56103;DHT22;41970;48.774;9.280;2023-04-10T07:22:38;8.40;99.90
56103;DHT22;41970;48.774;9.280;2023-04-10T07:25:05;8.50;98.40
56103;DHT22;41970;48.774;9.280;2023-04-10T07:27:31;8.70;97.40
56103;DHT22;41970;48.774;9.280;2023-04-10T07:29:57;9.10;97.50
56103;DHT22;41970;48.774;9.280;2023-04-10T07:32:23;9.80;97.70
56103;DHT22;41970;48.774;9.280;2023-04-10T07:34:49;10.40;95.30
56103;DHT22;41970;48.774;9.280;2023-04-10T07:37:15;10.70;94.70
56103;DHT22;41970;48.774;9.280;2023-04-10T07:39:42;11.30;95.00
56103;DHT22;41970;48.774;9.280;2023-04-10T07:42:09;12.40;93.40
56103;DHT22;41970;48.774;9.280;2023-04-10T07:44:35;12.70;90.00
56103;DHT22;41970;48.774;9.280;2023-04-10T07:47:02;12.30;91.00
56103;DHT22;41970;48.774;9.280;2023-04-10T07:49:28;12.40;90.10
56103;DHT22;41970;48.774;9.280;2023-04-10T07:51:53;12.70;89.50
56103;DHT22;41970;48.774;9.280;2023-04-10T07:54:20;13.10;88.40
56103;DHT22;41970;48.774;9.280;2023-04-10T07:56:45;13.50;87.70
56103;DHT22;41970;48.774;9.280;2023-04-10T07:59:11;13.70;88.60
56103;DHT22;41970;48.774;9.280;2023-04-10T08:01:37;14.60;88.00
56103;DHT22;41970;48.774;9.280;2023-04-10T08:04:03;15.20;83.20
56103;DHT22;41970;48.774;9.280;2023-04-10T08:06:29;15.50;80.10
56103;DHT22;41970;48.774;9.280;2023-04-10T08:08:56;15.90;82.40
56103;DHT22;41970;48.774;9.280;2023-04-10T08:11:27;15.80;77.50
56103;DHT22;41970;48.774;9.280;2023-04-10T08:13:57;15.50;77.10
56103;DHT22;41970;48.774;9.280;2023-04-10T08:16:27;14.90;77.50
56103;DHT22;41970;48.774;9.280;2023-04-10T08:18:54;15.00;78.10
56103;DHT22;41970;48.774;9.280;2023-04-10T08:21:26;14.50;77.00
56103;DHT22;41970;48.774;9.280;2023-04-10T08:23:52;14.10;76.60
56103;DHT22;41970;48.774;9.280;2023-04-10T08:26:19;14.00;79.00
56103;DHT22;41970;48.774;9.280;2023-04-10T08:28:49;14.30;78.60
56103;DHT22;41970;48.774;9.280;2023-04-10T08:31:20;14.40;77.30
56103;DHT22;41970;48.774;9.280;2023-04-10T08:33:48;14.30;76.90
56103;DHT22;41970;48.774;9.280;2023-04-10T08:36:14;14.20;76.70
56103;DHT22;41970;48.774;9.280;2023-04-10T08:38:41;14.10;76.20
56103;DHT22;41970;48.774;9.280;2023-04-10T08:41:10;14.10;77.00
56103;DHT22;41970;48.774;9.280;2023-04-10T08:43:36;14.40;80.10
56103;DHT22;41970;48.774;9.280;2023-04-10T08:46:03;14.90;75.80
56103;DHT22;41970;48.774;9.280;2023-04-10T08:48:38;14.50;76.20
56103;DHT22;41970;48.774;9.280;2023-04-10T08:51:06;14.60;76.50
56103;DHT22;41970;48.774;9.280;2023-04-10T08:53:39;14.80;76.00
56103;DHT22;41970;48.774;9.280;2023-04-10T08:56:06;15.00;74.00
56103;DHT22;41970;48.774;9.280;2023-04-10T08:58:32;14.90;73.30
56103;DHT22;41970;48.774;9.280;2023-04-10T09:00:59;15.00;74.90
56103;DHT22;41970;48.774;9.280;2023-04-10T09:03:26;14.80;73.10
56103;DHT22;41970;48.774;9.280;2023-04-10T09:05:52;14.90;73.70
56103;DHT22;41970;48.774;9.280;2023-04-10T09:08:18;15.10;73.20
56103;DHT22;41970;48.774;9.280;2023-04-10T09:10:44;15.10;73.70
56103;DHT22;41970;48.774;9.280;2023-04-10T09:13:10;15.10;72.60
56103;DHT22;41970;48.774;9.280;2023-04-10T09:15:55;15.20;74.00
56103;DHT22;41970;48.774;9.280;2023-04-10T09:18:21;15.30;72.10
56103;DHT22;41970;48.774;9.280;2023-04-10T09:20:47;15.30;70.90
56103;DHT22;41970;48.774;9.280;2023-04-10T09:23:25;15.30;71.70
56103;DHT22;41970;48.774;9.280;2023-04-10T09:25:50;15.40;72.20
56103;DHT22;41970;48.774;9.280;2023-04-10T09:28:16;15.50;71.80
56103;DHT22;41970;48.774;9.280;2023-04-10T09:30:42;15.70;70.20
56103;DHT22;41970;48.774;9.280;2023-04-10T09:33:21;15.80;69.70
56103;DHT22;41970;48.774;9.280;2023-04-10T09:35:48;15.80;68.80
56103;DHT22;41970;48.774;9.280;2023-04-10T09:38:18;15.80;68.00
56103;DHT22;41970;48.774;9.280;2023-04-10T09:40:45;15.90;70.10
56103;DHT22;41970;48.774;9.280;2023-04-10T09:43:24;16.20;68.40
56103;DHT22;41970;48.774;9.280;2023-04-10T09:45:52;16.50;66.60
56103;DHT22;41970;48.774;9.280;2023-04-10T09:48:19;16.30;66.90
56103;DHT22;41970;48.774;9.280;2023-04-10T09:50:46;16.20;67.00
56103;DHT22;41970;48.774;9.280;2023-04-10T09:53:17;16.10;68.70
56103;DHT22;41970;48.774;9.280;2023-04-10T09:55:45;16.30;67.50
56103;DHT22;41970;48.774;9.280;2023-04-10T09:58:12;16.20;66.20
56103;DHT22;41970;48.774;9.280;2023-04-10T10:00:40;16.20;66.20
56103;DHT22;41970;48.774;9.280;2023-04-10T10:03:08;16.00;67.30
56103;DHT22;41970;48.774;9.280;2023-04-10T10:05:40;16.10;67.40
56103;DHT22;41970;48.774;9.280;2023-04-10T10:08:11;16.20;66.20
56103;DHT22;41970;48.774;9.280;2023-04-10T10:10:39;16.10;65.60
56103;DHT22;41970;48.774;9.280;2023-04-10T10:13:14;16.20;66.00
56103;DHT22;41970;48.774;9.280;2023-04-10T10:21:27;16.10;64.60
56103;DHT22;41970;48.774;9.280;2023-04-10T10:23:56;16.10;63.80
56103;DHT22;41970;48.774;9.280;2023-04-10T10:26:23;16.40;65.30
56103;DHT22;41970;48.774;9.280;2023-04-10T10:28:50;16.30;63.50
56103;DHT22;41970;48.774;9.280;2023-04-10T10:31:20;16.20;63.10
56103;DHT22;41970;48.774;9.280;2023-04-10T10:33:47;16.00;64.50
56103;DHT22;41970;48.774;9.280;2023-04-10T10:36:14;16.10;63.10
56103;DHT22;41970;48.774;9.280;2023-04-10T10:38:49;16.10;62.40
56103;DHT22;41970;48.774;9.280;2023-04-10T10:41:34;16.20;63.80
56103;DHT22;41970;48.774;9.280;2023-04-10T10:44:51;16.10;63.30
56103;DHT22;41970;48.774;9.280;2023-04-10T10:47:18;16.10;62.80
56103;DHT22;41970;48.774;9.280;2023-04-10T10:49:58;16.20;62.20
56103;DHT22;41970;48.774;9.280;2023-04-10T10:57:48;16.30;62.20
56103;DHT22;41970;48.774;9.280;2023-04-10T11:00:15;16.40;61.40
56103;DHT22;41970;48.774;9.280;2023-04-10T11:02:41;16.40;62.70
56103;DHT22;41970;48.774;9.280;2023-04-10T11:05:07;16.60;61.00
56103;DHT22;41970;48.774;9.280;2023-04-10T11:08:06;16.40;60.50
56103;DHT22;41970;48.774;9.280;2023-04-10T11:13:39;16.40;59.60
56103;DHT22;41970;48.774;9.280;2023-04-10T11:16:08;16.60;60.30
56103;DHT22;41970;48.774;9.280;2023-04-10T11:21:13;16.60;58.90
56103;DHT22;41970;48.774;9.280;2023-04-10T11:26:38;16.70;58.60
56103;DHT22;41970;48.774;9.280;2023-04-10T11:31:40;16.60;58.60
56103;DHT22;41970;48.774;9.280;2023-04-10T11:34:08;16.60;59.00
56103;DHT22;41970;48.774;9.280;2023-04-10T11:36:38;16.80;57.40
56103;DHT22;41970;48.774;9.280;2023-04-10T11:39:09;16.90;57.70
56103;DHT22;41970;48.774;9.280;2023-04-10T11:41:43;17.10;57.70
56103;DHT22;41970;48.774;9.280;2023-04-10T11:44:31;17.20;56.00
56103;DHT22;41970;48.774;9.280;2023-04-10T11:46:59;17.10;54.40
56103;DHT22;41970;48.774;9.280;2023-04-10T11:49:33;17.00;55.50
56103;DHT22;41970;48.774;9.280;2023-04-10T11:51:59;17.00;55.50
56103;DHT22;41970;48.774;9.280;2023-04-10T11:54:26;17.00;53.60
56103;DHT22;41970;48.774;9.280;2023-04-10T11:57:05;16.90;52.90
56103;DHT22;41970;48.774;9.280;2023-04-10T11:59:33;17.00;53.90
56103;DHT22;41970;48.774;9.280;2023-04-10T12:02:13;17.20;52.10
56103;DHT22;41970;48.774;9.280;2023-04-10T12:04:41;17.10;50.70
56103;DHT22;41970;48.774;9.280;2023-04-10T12:07:08;17.00;52.00
56103;DHT22;41970;48.774;9.280;2023-04-10T12:09:35;17.10;51.70
56103;DHT22;41970;48.774;9.280;2023-04-10T12:12:05;17.20;49.30
56103;DHT22;41970;48.774;9.280;2023-04-10T12:14:32;17.10;49.10
56103;DHT22;41970;48.774;9.280;2023-04-10T12:16:58;17.10;49.40
56103;DHT22;41970;48.774;9.280;2023-04-10T12:19:25;17.10;49.10
56103;DHT22;41970;48.774;9.280;2023-04-10T12:21:51;17.20;49.50
56103;DHT22;41970;48.774;9.280;2023-04-10T12:24:43;17.10;48.50
56103;DHT22;41970;48.774;9.280;2023-04-10T12:27:25;17.30;49.10
56103;DHT22;41970;48.774;9.280;2023-04-10T12:29:56;17.30;49.10
56103;DHT22;41970;48.774;9.280;2023-04-10T12:32:23;17.30;49.80
56103;DHT22;41970;48.774;9.280;2023-04-10T12:34:59;17.40;48.30
56103;DHT22;41970;48.774;9.280;2023-04-10T12:37:50;17.40;48.40
56103;DHT22;41970;48.774;9.280;2023-04-10T12:40:16;17.30;49.40
56103;DHT22;41970;48.774;9.280;2023-04-10T12:42:42;17.40;50.10
56103;DHT22;41970;48.774;9.280;2023-04-10T12:45:08;17.40;49.60
56103;DHT22;41970;48.774;9.280;2023-04-10T12:47:47;17.50;49.00
56103;DHT22;41970;48.774;9.280;2023-04-10T12:50:15;17.40;48.40
56103;DHT22;41970;48.774;9.280;2023-04-10T12:52:45;17.40;48.80
56103;DHT22;41970;48.774;9.280;2023-04-10T12:55:25;17.40;49.30
56103;DHT22;41970;48.774;9.280;2023-04-10T12:57:51;17.60;49.50
56103;DHT22;41970;48.774;9.280;2023-04-10T13:00:18;17.60;48.70
56103;DHT22;41970;48.774;9.280;2023-04-10T13:02:46;17.50;48.80
56103;DHT22;41970;48.774;9.280;2023-04-10T13:05:12;17.40;48.20
56103;DHT22;41970;48.774;9.280;2023-04-10T13:07:38;17.50;49.70
56103;DHT22;41970;48.774;9.280;2023-04-10T13:10:04;17.60;49.40
56103;DHT22;41970;48.774;9.280;2023-04-10T13:12:31;17.50;50.60
56103;DHT22;41970;48.774;9.280;2023-04-10T13:14:59;17.50;50.30
56103;DHT22;41970;48.774;9.280;2023-04-10T13:17:26;17.40;50.40
56103;DHT22;41970;48.774;9.280;2023-04-10T13:19:52;17.40;49.90
56103;DHT22;41970;48.774;9.280;2023-04-10T13:22:18;17.40;49.40
56103;DHT22;41970;48.774;9.280;2023-04-10T13:24:47;17.40;50.10
56103;DHT22;41970;48.774;9.280;2023-04-10T13:27:13;17.60;49.90
56103;DHT22;41970;48.774;9.280;2023-04-10T13:29:41;17.80;50.60
56103;DHT22;41970;48.774;9.280;2023-04-10T13:32:07;18.10;51.40
56103;DHT22;41970;48.774;9.280;2023-04-10T13:34:33;18.10;49.80
56103;DHT22;41970;48.774;9.280;2023-04-10T13:36:59;18.00;51.50
56103;DHT22;41970;48.774;9.280;2023-04-10T13:39:29;17.90;50.80
56103;DHT22;41970;48.774;9.280;2023-04-10T13:41:56;18.00;49.60
56103;DHT22;41970;48.774;9.280;2023-04-10T13:44:22;18.30;50.30
56103;DHT22;41970;48.774;9.280;2023-04-10T13:46:48;18.40;50.80
56103;DHT22;41970;48.774;9.280;2023-04-10T13:49:13;18.20;50.10
56103;DHT22;41970;48.774;9.280;2023-04-10T13:51:44;18.00;49.50
56103;DHT22;41970;48.774;9.280;2023-04-10T13:54:10;18.00;49.90
56103;DHT22;41970;48.774;9.280;2023-04-10T13:56:36;17.90;51.00
56103;DHT22;41970;48.774;9.280;2023-04-10T13:59:03;18.10;51.20
56103;DHT22;41970;48.774;9.280;2023-04-10T14:01:29;18.40;50.40
56103;DHT22;41970;48.774;9.280;2023-04-10T14:03:54;18.60;49.20
56103;DHT22;41970;48.774;9.280;2023-04-10T14:06:20;18.40;48.50
56103;DHT22;41970;48.774;9.280;2023-04-10T14:08:46;18.20;49.30
56103;DHT22;41970;48.774;9.280;2023-04-10T14:11:12;18.10;49.30
56103;DHT22;41970;48.774;9.280;2023-04-10T14:13:37;18.10;49.50
56103;DHT22;41970;48.774;9.280;2023-04-10T14:16:03;18.10;48.60
56103;DHT22;41970;48.774;9.280;2023-04-10T14:18:29;18.40;49.30
56103;DHT22;41970;48.774;9.280;2023-04-10T14:20:55;18.40;49.90
56103;DHT22;41970;48.774;9.280;2023-04-10T14:23:20;18.10;50.40
56103;DHT22;41970;48.774;9.280;2023-04-10T14:25:49;18.20;50.10
56103;DHT22;41970;48.774;9.280;2023-04-10T14:28:15;18.10;50.00
56103;DHT22;41970;48.774;9.280;2023-04-10T14:30:48;18.00;49.90
56103;DHT22;41970;48.774;9.280;2023-04-10T14:33:14;17.90;50.00
56103;DHT22;41970;48.774;9.280;2023-04-10T14:35:41;18.20;50.10
56103;DHT22;41970;48.774;9.280;2023-04-10T14:38:07;18.30;50.30
56103;DHT22;41970;48.774;9.280;2023-04-10T14:40:33;18.60;50.60
56103;DHT22;41970;48.774;9.280;2023-04-10T14:42:59;18.70;50.60
56103;DHT22;41970;48.774;9.280;2023-04-10T14:45:24;18.80;50.40
56103;DHT22;41970;48.774;9.280;2023-04-10T14:47:51;18.50;49.40
56103;DHT22;41970;48.774;9.280;2023-04-10T14:50:17;18.20;50.00
56103;DHT22;41970;48.774;9.280;2023-04-10T14:52:43;18.10;50.00
56103;DHT22;41970;48.774;9.280;2023-04-10T14:55:09;17.90;50.10
56103;DHT22;41970;48.774;9.280;2023-04-10T14:57:35;17.80;50.50
56103;DHT22;41970;48.774;9.280;2023-04-10T15:00:02;17.80;50.90
56103;DHT22;41970;48.774;9.280;2023-04-10T15:02:28;17.80;51.20
56103;DHT22;41970;48.774;9.280;2023-04-10T15:04:55;17.80;51.10
56103;DHT22;41970;48.774;9.280;2023-04-10T15:07:21;17.80;51.10
56103;DHT22;41970;48.774;9.280;2023-04-10T15:09:46;17.80;50.00
56103;DHT22;41970;48.774;9.280;2023-04-10T15:12:12;17.80;51.40
56103;DHT22;41970;48.774;9.280;2023-04-10T15:14:38;17.80;50.10
56103;DHT22;41970;48.774;9.280;2023-04-10T15:17:04;17.70;50.20
56103;DHT22;41970;48.774;9.280;2023-04-10T15:19:30;17.70;49.40
56103;DHT22;41970;48.774;9.280;2023-04-10T15:21:55;17.70;50.40
56103;DHT22;41970;48.774;9.280;2023-04-10T15:24:21;17.80;50.60
56103;DHT22;41970;48.774;9.280;2023-04-10T15:26:47;17.80;51.00
56103;DHT22;41970;48.774;9.280;2023-04-10T15:29:13;17.80;50.60
56103;DHT22;41970;48.774;9.280;2023-04-10T15:31:39;17.80;50.30
56103;DHT22;41970;48.774;9.280;2023-04-10T15:34:05;17.70;51.40
56103;DHT22;41970;48.774;9.280;2023-04-10T15:36:31;17.70;51.70
56103;DHT22;41970;48.774;9.280;2023-04-10T15:38:57;17.70;51.80
56103;DHT22;41970;48.774;9.280;2023-04-10T15:41:24;17.70;51.60
56103;DHT22;41970;48.774;9.280;2023-04-10T15:43:52;17.70;51.70
56103;DHT22;41970;48.774;9.280;2023-04-10T15:46:18;17.70;52.40
56103;DHT22;41970;48.774;9.280;2023-04-10T15:48:43;17.60;52.60
56103;DHT22;41970;48.774;9.280;2023-04-10T15:51:12;17.60;52.70
56103;DHT22;41970;48.774;9.280;2023-04-10T15:53:38;17.60;53.00
56103;DHT22;41970;48.774;9.280;2023-04-10T15:56:04;17.50;53.50
56103;DHT22;41970;48.774;9.280;2023-04-10T15:58:33;17.50;53.40
56103;DHT22;41970;48.774;9.280;2023-04-10T16:01:00;17.50;53.40
56103;DHT22;41970;48.774;9.280;2023-04-10T16:03:26;17.40;53.70
56103;DHT22;41970;48.774;9.280;2023-04-10T16:05:52;17.40;53.40
56103;DHT22;41970;48.774;9.280;2023-04-10T16:08:18;17.50;54.20
56103;DHT22;41970;48.774;9.280;2023-04-10T16:10:44;17.50;54.30